sensor_id;sensor_type;location;lat;lon;timestamp;P1;durP1;ratioP1;P2;durP2;ratioP2
14704;SDS011;7442;50.840;3.396;2023-02-15T00:00:34;9.10;;;7.50;;
14704;SDS011;7442;50.840;3.396;2023-02-15T00:03:04;9.05;;;7.05;;
14704;SDS011;7442;50.840;3.396;2023-02-15T00:05:34;8.63;;;6.87;;
14704;SDS011;7442;50.840;3.396;2023-02-15T00:08:04;8.70;;;7.33;;
14704;SDS011;7442;50.840;3.396;2023-02-15T00:10:34;7.62;;;6.83;;
14704;SDS011;7442;50.840;3.396;2023-02-15T00:13:04;8.65;;;7.35;;
14704;SDS011;7442;50.840;3.396;2023-02-15T00:15:34;9.55;;;7.28;;
14704;SDS011;7442;50.840;3.396;2023-02-15T00:18:04;7.75;;;6.83;;
14704;SDS011;7442;50.840;3.396;2023-02-15T00:20:34;7.75;;;6.92;;
14704;SDS011;7442;50.840;3.396;2023-02-15T00:23:08;8.08;;;7.20;;
14704;SDS011;7442;50.840;3.396;2023-02-15T00:25:38;7.80;;;7.00;;
14704;SDS011;7442;50.840;3.396;2023-02-15T00:28:08;9.10;;;7.22;;
14704;SDS011;7442;50.840;3.396;2023-02-15T00:30:38;7.65;;;6.85;;
14704;SDS011;7442;50.840;3.396;2023-02-15T00:33:10;7.70;;;6.70;;
14704;SDS011;7442;50.840;3.396;2023-02-15T00:35:41;9.53;;;7.12;;
14704;SDS011;7442;50.840;3.396;2023-02-15T00:38:11;7.70;;;6.72;;
14704;SDS011;7442;50.840;3.396;2023-02-15T00:40:41;8.00;;;7.20;;
14704;SDS011;7442;50.840;3.396;2023-02-15T00:43:11;7.50;;;6.70;;
14704;SDS011;7442;50.840;3.396;2023-02-15T00:45:41;8.35;;;7.00;;
14704;SDS011;7442;50.840;3.396;2023-02-15T00:48:11;8.08;;;6.83;;
14704;SDS011;7442;50.840;3.396;2023-02-15T00:50:41;7.33;;;6.62;;
14704;SDS011;7442;50.840;3.396;2023-02-15T00:53:12;8.40;;;7.37;;
14704;SDS011;7442;50.840;3.396;2023-02-15T00:55:42;7.03;;;6.33;;
14704;SDS011;7442;50.840;3.396;2023-02-15T00:58:13;7.83;;;6.83;;
14704;SDS011;7442;50.840;3.396;2023-02-15T01:00:44;8.00;;;6.58;;
14704;SDS011;7442;50.840;3.396;2023-02-15T01:03:16;7.15;;;6.45;;
14704;SDS011;7442;50.840;3.396;2023-02-15T01:05:48;7.90;;;7.08;;
14704;SDS011;7442;50.840;3.396;2023-02-15T01:08:18;7.90;;;7.10;;
14704;SDS011;7442;50.840;3.396;2023-02-15T01:10:48;7.62;;;6.83;;
14704;SDS011;7442;50.840;3.396;2023-02-15T01:13:18;8.95;;;6.97;;
14704;SDS011;7442;50.840;3.396;2023-02-15T01:15:55;6.83;;;6.12;;
14704;SDS011;7442;50.840;3.396;2023-02-15T01:18:25;7.15;;;6.45;;
14704;SDS011;7442;50.840;3.396;2023-02-15T01:20:56;8.60;;;6.42;;
14704;SDS011;7442;50.840;3.396;2023-02-15T01:23:26;7.87;;;7.08;;
14704;SDS011;7442;50.840;3.396;2023-02-15T01:26:00;7.50;;;6.80;;
14704;SDS011;7442;50.840;3.396;2023-02-15T01:28:29;7.33;;;6.62;;
14704;SDS011;7442;50.840;3.396;2023-02-15T01:31:04;8.08;;;7.00;;
14704;SDS011;7442;50.840;3.396;2023-02-15T01:33:35;7.55;;;6.75;;
14704;SDS011;7442;50.840;3.396;2023-02-15T01:36:06;7.78;;;6.70;;
14704;SDS011;7442;50.840;3.396;2023-02-15T01:38:36;8.25;;;6.90;;
14704;SDS011;7442;50.840;3.396;2023-02-15T01:41:08;7.33;;;6.62;;
14704;SDS011;7442;50.840;3.396;2023-02-15T01:43:55;8.85;;;7.22;;
14704;SDS011;7442;50.840;3.396;2023-02-15T01:46:33;7.12;;;6.42;;
14704;SDS011;7442;50.840;3.396;2023-02-15T01:49:18;9.13;;;7.25;;
14704;SDS011;7442;50.840;3.396;2023-02-15T01:51:46;7.83;;;7.05;;
14704;SDS011;7442;50.840;3.396;2023-02-15T01:54:21;8.13;;;6.60;;
14704;SDS011;7442;50.840;3.396;2023-02-15T01:56:54;7.60;;;6.70;;
14704;SDS011;7442;50.840;3.396;2023-02-15T01:59:27;7.80;;;6.92;;
14704;SDS011;7442;50.840;3.396;2023-02-15T02:01:59;7.28;;;6.45;;
14704;SDS011;7442;50.840;3.396;2023-02-15T02:04:46;7.28;;;6.55;;
14704;SDS011;7442;50.840;3.396;2023-02-15T02:07:26;7.85;;;6.58;;
14704;SDS011;7442;50.840;3.396;2023-02-15T02:09:50;7.12;;;6.35;;
14704;SDS011;7442;50.840;3.396;2023-02-15T02:12:21;6.65;;;6.03;;
14704;SDS011;7442;50.840;3.396;2023-02-15T02:14:53;7.05;;;6.42;;
14704;SDS011;7442;50.840;3.396;2023-02-15T02:23:24;7.40;;;6.70;;
14704;SDS011;7442;50.840;3.396;2023-02-15T02:29:09;7.62;;;6.83;;
14704;SDS011;7442;50.840;3.396;2023-02-15T02:31:44;7.20;;;6.50;;
14704;SDS011;7442;50.840;3.396;2023-02-15T02:34:21;7.25;;;6.55;;
14704;SDS011;7442;50.840;3.396;2023-02-15T02:36:59;7.22;;;6.53;;
14704;SDS011;7442;50.840;3.396;2023-02-15T02:39:37;6.97;;;6.03;;
14704;SDS011;7442;50.840;3.396;2023-02-15T02:44:49;7.10;;;6.40;;
14704;SDS011;7442;50.840;3.396;2023-02-15T02:47:23;7.70;;;6.97;;
14704;SDS011;7442;50.840;3.396;2023-02-15T02:49:58;7.70;;;6.90;;
14704;SDS011;7442;50.840;3.396;2023-02-15T02:52:35;7.12;;;6.42;;
14704;SDS011;7442;50.840;3.396;2023-02-15T02:55:26;7.15;;;6.45;;
14704;SDS011;7442;50.840;3.396;2023-02-15T03:01:08;6.85;;;6.25;;
14704;SDS011;7442;50.840;3.396;2023-02-15T03:03:41;7.42;;;6.70;;
14704;SDS011;7442;50.840;3.396;2023-02-15T03:06:22;7.60;;;6.80;;
14704;SDS011;7442;50.840;3.396;2023-02-15T03:08:56;8.03;;;6.50;;
14704;SDS011;7442;50.840;3.396;2023-02-15T03:11:27;7.37;;;6.53;;
14704;SDS011;7442;50.840;3.396;2023-02-15T03:13:58;7.95;;;7.03;;
14704;SDS011;7442;50.840;3.396;2023-02-15T03:16:28;7.87;;;6.53;;
14704;SDS011;7442;50.840;3.396;2023-02-15T03:24:25;7.75;;;7.00;;
14704;SDS011;7442;50.840;3.396;2023-02-15T03:26:57;7.85;;;7.05;;
14704;SDS011;7442;50.840;3.396;2023-02-15T03:29:30;7.70;;;6.90;;
14704;SDS011;7442;50.840;3.396;2023-02-15T03:32:03;7.03;;;6.33;;
14704;SDS011;7442;50.840;3.396;2023-02-15T03:34:35;6.87;;;6.28;;
14704;SDS011;7442;50.840;3.396;2023-02-15T03:39:48;6.97;;;6.35;;
14704;SDS011;7442;50.840;3.396;2023-02-15T03:42:27;9.28;;;6.33;;
14704;SDS011;7442;50.840;3.396;2023-02-15T03:45:03;6.87;;;6.28;;
14704;SDS011;7442;50.840;3.396;2023-02-15T03:47:39;7.55;;;6.85;;
14704;SDS011;7442;50.840;3.396;2023-02-15T03:50:12;8.90;;;7.15;;
14704;SDS011;7442;50.840;3.396;2023-02-15T03:53:02;7.62;;;6.90;;
14704;SDS011;7442;50.840;3.396;2023-02-15T03:55:35;7.62;;;6.80;;
14704;SDS011;7442;50.840;3.396;2023-02-15T03:58:05;7.50;;;6.75;;
14704;SDS011;7442;50.840;3.396;2023-02-15T04:00:55;7.22;;;6.62;;
14704;SDS011;7442;50.840;3.396;2023-02-15T04:03:52;7.72;;;6.95;;
14704;SDS011;7442;50.840;3.396;2023-02-15T04:06:27;9.05;;;6.70;;
14704;SDS011;7442;50.840;3.396;2023-02-15T04:08:57;7.50;;;6.72;;
14704;SDS011;7442;50.840;3.396;2023-02-15T04:11:44;7.53;;;6.75;;
14704;SDS011;7442;50.840;3.396;2023-02-15T04:14:16;7.30;;;6.60;;
14704;SDS011;7442;50.840;3.396;2023-02-15T04:17:07;8.70;;;7.62;;
14704;SDS011;7442;50.840;3.396;2023-02-15T04:19:38;7.58;;;6.80;;
14704;SDS011;7442;50.840;3.396;2023-02-15T04:22:26;7.60;;;6.90;;
14704;SDS011;7442;50.840;3.396;2023-02-15T04:25:14;7.58;;;6.72;;
14704;SDS011;7442;50.840;3.396;2023-02-15T04:27:53;8.00;;;7.08;;
14704;SDS011;7442;50.840;3.396;2023-02-15T04:30:22;7.95;;;7.20;;
14704;SDS011;7442;50.840;3.396;2023-02-15T04:32:53;7.22;;;6.47;;
14704;SDS011;7442;50.840;3.396;2023-02-15T04:35:25;8.20;;;6.97;;
14704;SDS011;7442;50.840;3.396;2023-02-15T04:37:55;7.33;;;6.62;;
14704;SDS011;7442;50.840;3.396;2023-02-15T04:40:25;6.97;;;6.05;;
14704;SDS011;7442;50.840;3.396;2023-02-15T04:42:55;8.10;;;7.03;;
14704;SDS011;7442;50.840;3.396;2023-02-15T04:45:25;8.35;;;7.40;;
14704;SDS011;7442;50.840;3.396;2023-02-15T04:47:56;8.08;;;7.28;;
14704;SDS011;7442;50.840;3.396;2023-02-15T04:50:26;7.72;;;6.92;;
14704;SDS011;7442;50.840;3.396;2023-02-15T04:52:56;7.50;;;6.80;;
14704;SDS011;7442;50.840;3.396;2023-02-15T04:55:26;8.85;;;7.22;;
14704;SDS011;7442;50.840;3.396;2023-02-15T04:57:56;9.65;;;7.50;;
14704;SDS011;7442;50.840;3.396;2023-02-15T05:00:26;7.70;;;6.42;;
14704;SDS011;7442;50.840;3.396;2023-02-15T05:02:56;7.40;;;6.62;;
14704;SDS011;7442;50.840;3.396;2023-02-15T05:05:26;8.00;;;7.20;;
14704;SDS011;7442;50.840;3.396;2023-02-15T05:07:56;8.05;;;7.25;;
14704;SDS011;7442;50.840;3.396;2023-02-15T05:10:26;7.67;;;6.87;;
14704;SDS011;7442;50.840;3.396;2023-02-15T05:12:56;8.20;;;7.20;;
14704;SDS011;7442;50.840;3.396;2023-02-15T05:15:26;7.70;;;6.78;;
14704;SDS011;7442;50.840;3.396;2023-02-15T05:17:56;6.87;;;6.17;;
14704;SDS011;7442;50.840;3.396;2023-02-15T05:20:26;7.55;;;6.85;;
14704;SDS011;7442;50.840;3.396;2023-02-15T05:22:56;7.72;;;6.90;;
14704;SDS011;7442;50.840;3.396;2023-02-15T05:25:26;7.45;;;6.72;;
14704;SDS011;7442;50.840;3.396;2023-02-15T05:28:14;7.67;;;6.87;;
14704;SDS011;7442;50.840;3.396;2023-02-15T05:30:56;8.20;;;7.40;;
14704;SDS011;7442;50.840;3.396;2023-02-15T05:33:29;7.25;;;6.50;;
14704;SDS011;7442;50.840;3.396;2023-02-15T05:36:00;7.45;;;6.62;;
14704;SDS011;7442;50.840;3.396;2023-02-15T05:38:31;7.50;;;6.80;;
14704;SDS011;7442;50.840;3.396;2023-02-15T05:41:01;8.30;;;7.50;;
14704;SDS011;7442;50.840;3.396;2023-02-15T05:43:32;7.22;;;6.53;;
14704;SDS011;7442;50.840;3.396;2023-02-15T05:46:02;8.85;;;7.03;;
14704;SDS011;7442;50.840;3.396;2023-02-15T05:48:33;7.10;;;6.40;;
14704;SDS011;7442;50.840;3.396;2023-02-15T05:51:08;6.65;;;5.95;;
14704;SDS011;7442;50.840;3.396;2023-02-15T05:53:41;7.83;;;7.03;;
14704;SDS011;7442;50.840;3.396;2023-02-15T05:56:14;7.25;;;6.55;;
14704;SDS011;7442;50.840;3.396;2023-02-15T05:58:46;7.47;;;6.67;;
14704;SDS011;7442;50.840;3.396;2023-02-15T06:01:17;7.12;;;6.42;;
14704;SDS011;7442;50.840;3.396;2023-02-15T06:03:49;7.30;;;6.60;;
14704;SDS011;7442;50.840;3.396;2023-02-15T06:06:20;8.28;;;6.35;;
14704;SDS011;7442;50.840;3.396;2023-02-15T06:08:50;7.90;;;7.10;;
14704;SDS011;7442;50.840;3.396;2023-02-15T06:11:21;7.47;;;6.67;;
14704;SDS011;7442;50.840;3.396;2023-02-15T06:13:50;7.83;;;7.03;;
14704;SDS011;7442;50.840;3.396;2023-02-15T06:16:21;7.17;;;6.47;;
14704;SDS011;7442;50.840;3.396;2023-02-15T06:18:51;6.75;;;6.10;;
14704;SDS011;7442;50.840;3.396;2023-02-15T06:21:21;7.75;;;6.50;;
14704;SDS011;7442;50.840;3.396;2023-02-15T06:23:53;7.72;;;6.72;;
14704;SDS011;7442;50.840;3.396;2023-02-15T06:26:23;7.20;;;6.50;;
14704;SDS011;7442;50.840;3.396;2023-02-15T06:28:53;7.30;;;6.60;;
14704;SDS011;7442;50.840;3.396;2023-02-15T06:31:23;8.10;;;7.25;;
14704;SDS011;7442;50.840;3.396;2023-02-15T06:33:53;9.33;;;7.35;;
14704;SDS011;7442;50.840;3.396;2023-02-15T06:36:25;7.78;;;6.97;;
14704;SDS011;7442;50.840;3.396;2023-02-15T06:38:56;7.80;;;6.75;;
14704;SDS011;7442;50.840;3.396;2023-02-15T06:41:27;8.48;;;7.05;;
14704;SDS011;7442;50.840;3.396;2023-02-15T06:43:57;8.43;;;7.15;;
14704;SDS011;7442;50.840;3.396;2023-02-15T06:46:27;7.92;;;7.17;;
14704;SDS011;7442;50.840;3.396;2023-02-15T06:48:57;20.35;;;7.40;;
14704;SDS011;7442;50.840;3.396;2023-02-15T06:51:27;10.15;;;6.33;;
14704;SDS011;7442;50.840;3.396;2023-02-15T06:53:57;8.90;;;6.80;;
14704;SDS011;7442;50.840;3.396;2023-02-15T06:56:27;7.67;;;6.75;;
14704;SDS011;7442;50.840;3.396;2023-02-15T06:58:58;11.10;;;6.90;;
14704;SDS011;7442;50.840;3.396;2023-02-15T07:01:28;9.65;;;7.03;;
14704;SDS011;7442;50.840;3.396;2023-02-15T07:03:58;8.00;;;6.50;;
14704;SDS011;7442;50.840;3.396;2023-02-15T07:06:32;7.12;;;6.42;;
14704;SDS011;7442;50.840;3.396;2023-02-15T07:09:04;12.33;;;6.78;;
14704;SDS011;7442;50.840;3.396;2023-02-15T07:11:34;8.88;;;6.90;;
14704;SDS011;7442;50.840;3.396;2023-02-15T07:14:22;8.03;;;6.47;;
14704;SDS011;7442;50.840;3.396;2023-02-15T07:16:52;8.85;;;6.70;;
14704;SDS011;7442;50.840;3.396;2023-02-15T07:19:22;7.70;;;6.67;;
14704;SDS011;7442;50.840;3.396;2023-02-15T07:21:52;8.40;;;7.10;;
14704;SDS011;7442;50.840;3.396;2023-02-15T07:24:22;8.30;;;6.53;;
14704;SDS011;7442;50.840;3.396;2023-02-15T07:26:52;7.62;;;6.75;;
14704;SDS011;7442;50.840;3.396;2023-02-15T07:29:22;8.28;;;6.95;;
14704;SDS011;7442;50.840;3.396;2023-02-15T07:31:54;8.43;;;6.92;;
14704;SDS011;7442;50.840;3.396;2023-02-15T07:34:26;7.08;;;6.33;;
14704;SDS011;7442;50.840;3.396;2023-02-15T07:36:56;7.45;;;6.45;;
14704;SDS011;7442;50.840;3.396;2023-02-15T07:39:26;8.95;;;6.60;;
14704;SDS011;7442;50.840;3.396;2023-02-15T07:41:56;9.08;;;6.40;;
14704;SDS011;7442;50.840;3.396;2023-02-15T07:44:29;8.83;;;6.62;;
14704;SDS011;7442;50.840;3.396;2023-02-15T07:46:59;7.25;;;6.55;;
14704;SDS011;7442;50.840;3.396;2023-02-15T07:49:29;7.42;;;6.42;;
14704;SDS011;7442;50.840;3.396;2023-02-15T07:52:00;7.42;;;6.47;;
14704;SDS011;7442;50.840;3.396;2023-02-15T07:54:30;8.23;;;6.97;;
14704;SDS011;7442;50.840;3.396;2023-02-15T07:57:00;9.20;;;6.53;;
14704;SDS011;7442;50.840;3.396;2023-02-15T07:59:31;31.65;;;7.75;;
14704;SDS011;7442;50.840;3.396;2023-02-15T08:02:01;10.48;;;6.62;;
14704;SDS011;7442;50.840;3.396;2023-02-15T08:04:31;10.98;;;6.83;;
14704;SDS011;7442;50.840;3.396;2023-02-15T08:07:01;11.38;;;6.95;;
14704;SDS011;7442;50.840;3.396;2023-02-15T08:09:32;9.08;;;6.85;;
14704;SDS011;7442;50.840;3.396;2023-02-15T08:12:09;9.90;;;6.87;;
14704;SDS011;7442;50.840;3.396;2023-02-15T08:14:39;7.60;;;6.78;;
14704;SDS011;7442;50.840;3.396;2023-02-15T08:17:09;9.03;;;6.58;;
14704;SDS011;7442;50.840;3.396;2023-02-15T08:19:39;10.05;;;6.85;;
14704;SDS011;7442;50.840;3.396;2023-02-15T08:22:11;10.70;;;6.45;;
14704;SDS011;7442;50.840;3.396;2023-02-15T08:24:42;12.55;;;7.10;;
14704;SDS011;7442;50.840;3.396;2023-02-15T08:27:12;9.63;;;7.10;;
14704;SDS011;7442;50.840;3.396;2023-02-15T08:29:42;9.23;;;6.85;;
14704;SDS011;7442;50.840;3.396;2023-02-15T08:32:12;7.95;;;7.00;;
14704;SDS011;7442;50.840;3.396;2023-02-15T08:34:42;11.30;;;6.97;;
14704;SDS011;7442;50.840;3.396;2023-02-15T08:37:12;8.05;;;7.20;;
14704;SDS011;7442;50.840;3.396;2023-02-15T08:39:42;8.08;;;6.80;;
14704;SDS011;7442;50.840;3.396;2023-02-15T08:42:14;8.90;;;6.97;;
14704;SDS011;7442;50.840;3.396;2023-02-15T08:44:44;8.65;;;6.95;;
14704;SDS011;7442;50.840;3.396;2023-02-15T08:47:14;9.25;;;7.55;;
14704;SDS011;7442;50.840;3.396;2023-02-15T08:49:44;10.78;;;7.67;;
14704;SDS011;7442;50.840;3.396;2023-02-15T08:52:14;8.88;;;7.72;;
14704;SDS011;7442;50.840;3.396;2023-02-15T08:54:44;8.50;;;7.15;;
14704;SDS011;7442;50.840;3.396;2023-02-15T08:57:14;8.80;;;7.15;;
14704;SDS011;7442;50.840;3.396;2023-02-15T08:59:44;10.58;;;7.40;;
14704;SDS011;7442;50.840;3.396;2023-02-15T09:02:15;10.63;;;7.45;;
14704;SDS011;7442;50.840;3.396;2023-02-15T09:04:45;9.78;;;7.45;;
14704;SDS011;7442;50.840;3.396;2023-02-15T09:07:15;11.00;;;7.80;;
14704;SDS011;7442;50.840;3.396;2023-02-15T09:09:47;11.25;;;7.85;;
14704;SDS011;7442;50.840;3.396;2023-02-15T09:12:17;9.55;;;7.60;;
14704;SDS011;7442;50.840;3.396;2023-02-15T09:14:47;10.18;;;7.05;;
14704;SDS011;7442;50.840;3.396;2023-02-15T09:17:17;12.65;;;6.62;;
14704;SDS011;7442;50.840;3.396;2023-02-15T09:19:47;12.25;;;7.28;;
14704;SDS011;7442;50.840;3.396;2023-02-15T09:22:17;10.85;;;7.40;;
14704;SDS011;7442;50.840;3.396;2023-02-15T09:24:47;11.35;;;7.85;;
14704;SDS011;7442;50.840;3.396;2023-02-15T09:27:17;9.75;;;7.08;;
14704;SDS011;7442;50.840;3.396;2023-02-15T09:29:47;14.43;;;7.97;;
14704;SDS011;7442;50.840;3.396;2023-02-15T09:32:17;35.48;;;16.50;;
14704;SDS011;7442;50.840;3.396;2023-02-15T09:34:47;94.10;;;37.38;;
14704;SDS011;7442;50.840;3.396;2023-02-15T09:37:18;152.30;;;54.98;;
14704;SDS011;7442;50.840;3.396;2023-02-15T09:39:48;264.08;;;97.57;;
14704;SDS011;7442;50.840;3.396;2023-02-15T09:42:22;197.22;;;75.10;;
14704;SDS011;7442;50.840;3.396;2023-02-15T09:50:31;213.55;;;81.72;;
14704;SDS011;7442;50.840;3.396;2023-02-15T09:53:15;197.75;;;78.42;;
14704;SDS011;7442;50.840;3.396;2023-02-15T09:58:42;200.72;;;80.15;;
14704;SDS011;7442;50.840;3.396;2023-02-15T10:10:08;148.45;;;64.75;;
14704;SDS011;7442;50.840;3.396;2023-02-15T10:12:58;149.65;;;61.53;;
14704;SDS011;7442;50.840;3.396;2023-02-15T10:26:45;122.53;;;54.42;;
14704;SDS011;7442;50.840;3.396;2023-02-15T10:32:40;122.10;;;53.00;;
14704;SDS011;7442;50.840;3.396;2023-02-15T10:34:39;115.57;;;49.75;;
14704;SDS011;7442;50.840;3.396;2023-02-15T10:48:45;94.95;;;44.58;;
14704;SDS011;7442;50.840;3.396;2023-02-15T10:54:16;86.80;;;42.80;;
14704;SDS011;7442;50.840;3.396;2023-02-15T11:08:17;75.50;;;38.02;;
14704;SDS011;7442;50.840;3.396;2023-02-15T11:11:00;76.90;;;37.25;;
14704;SDS011;7442;50.840;3.396;2023-02-15T11:13:32;71.87;;;35.08;;
14704;SDS011;7442;50.840;3.396;2023-02-15T11:16:40;67.67;;;33.53;;
14704;SDS011;7442;50.840;3.396;2023-02-15T11:18:58;62.55;;;32.83;;
14704;SDS011;7442;50.840;3.396;2023-02-15T11:21:37;62.15;;;30.32;;
14704;SDS011;7442;50.840;3.396;2023-02-15T11:24:18;59.53;;;28.85;;
14704;SDS011;7442;50.840;3.396;2023-02-15T11:26:50;57.50;;;27.42;;
14704;SDS011;7442;50.840;3.396;2023-02-15T11:29:52;65.05;;;29.00;;
14704;SDS011;7442;50.840;3.396;2023-02-15T11:32:28;54.35;;;26.97;;
14704;SDS011;7442;50.840;3.396;2023-02-15T11:37:47;52.58;;;26.77;;
14704;SDS011;7442;50.840;3.396;2023-02-15T11:40:30;48.68;;;25.85;;
14704;SDS011;7442;50.840;3.396;2023-02-15T11:43:12;49.18;;;23.65;;
14704;SDS011;7442;50.840;3.396;2023-02-15T11:45:44;58.15;;;25.48;;
14704;SDS011;7442;50.840;3.396;2023-02-15T11:48:15;53.30;;;24.07;;
14704;SDS011;7442;50.840;3.396;2023-02-15T11:50:46;53.92;;;23.92;;
14704;SDS011;7442;50.840;3.396;2023-02-15T11:53:17;47.43;;;24.20;;
14704;SDS011;7442;50.840;3.396;2023-02-15T11:55:55;47.48;;;23.60;;
14704;SDS011;7442;50.840;3.396;2023-02-15T12:04:23;47.05;;;22.27;;
14704;SDS011;7442;50.840;3.396;2023-02-15T12:07:09;44.38;;;21.73;;
14704;SDS011;7442;50.840;3.396;2023-02-15T12:09:59;47.10;;;22.17;;
14704;SDS011;7442;50.840;3.396;2023-02-15T12:12:33;46.33;;;20.48;;
14704;SDS011;7442;50.840;3.396;2023-02-15T12:15:05;39.80;;;21.10;;
14704;SDS011;7442;50.840;3.396;2023-02-15T12:17:49;40.95;;;19.57;;
14704;SDS011;7442;50.840;3.396;2023-02-15T12:22:49;40.43;;;20.27;;
14704;SDS011;7442;50.840;3.396;2023-02-15T12:31:02;40.03;;;18.57;;
14704;SDS011;7442;50.840;3.396;2023-02-15T12:33:45;42.17;;;18.12;;
14704;SDS011;7442;50.840;3.396;2023-02-15T12:36:18;37.05;;;17.45;;
14704;SDS011;7442;50.840;3.396;2023-02-15T12:44:33;42.30;;;17.50;;
14704;SDS011;7442;50.840;3.396;2023-02-15T12:49:36;36.95;;;16.65;;
14704;SDS011;7442;50.840;3.396;2023-02-15T12:54:52;39.98;;;16.10;;
14704;SDS011;7442;50.840;3.396;2023-02-15T12:57:29;39.90;;;15.98;;
14704;SDS011;7442;50.840;3.396;2023-02-15T13:00:02;35.17;;;16.17;;
14704;SDS011;7442;50.840;3.396;2023-02-15T13:02:41;31.33;;;15.63;;
14704;SDS011;7442;50.840;3.396;2023-02-15T13:05:26;28.20;;;15.15;;
14704;SDS011;7442;50.840;3.396;2023-02-15T13:10:52;27.07;;;15.13;;
14704;SDS011;7442;50.840;3.396;2023-02-15T13:13:35;33.67;;;15.03;;
14704;SDS011;7442;50.840;3.396;2023-02-15T13:16:14;28.90;;;14.73;;
14704;SDS011;7442;50.840;3.396;2023-02-15T13:18:43;29.67;;;15.38;;
14704;SDS011;7442;50.840;3.396;2023-02-15T13:21:16;29.12;;;17.80;;
14704;SDS011;7442;50.840;3.396;2023-02-15T13:24:04;28.42;;;16.37;;
14704;SDS011;7442;50.840;3.396;2023-02-15T13:26:31;33.13;;;16.42;;
14704;SDS011;7442;50.840;3.396;2023-02-15T13:29:11;31.23;;;16.35;;
14704;SDS011;7442;50.840;3.396;2023-02-15T13:31:37;25.52;;;15.93;;
14704;SDS011;7442;50.840;3.396;2023-02-15T13:34:29;32.63;;;15.40;;
14704;SDS011;7442;50.840;3.396;2023-02-15T13:37:08;41.68;;;14.80;;
14704;SDS011;7442;50.840;3.396;2023-02-15T13:39:43;26.63;;;14.50;;
14704;SDS011;7442;50.840;3.396;2023-02-15T13:48:15;24.23;;;12.97;;
14704;SDS011;7442;50.840;3.396;2023-02-15T13:51:01;26.20;;;12.80;;
14704;SDS011;7442;50.840;3.396;2023-02-15T13:53:42;27.48;;;12.23;;
14704;SDS011;7442;50.840;3.396;2023-02-15T14:16:39;27.65;;;11.12;;
14704;SDS011;7442;50.840;3.396;2023-02-15T14:19:53;27.05;;;12.73;;
14704;SDS011;7442;50.840;3.396;2023-02-15T14:24:42;20.48;;;11.25;;
14704;SDS011;7442;50.840;3.396;2023-02-15T14:27:27;23.07;;;13.62;;
14704;SDS011;7442;50.840;3.396;2023-02-15T14:30:15;37.58;;;16.95;;
14704;SDS011;7442;50.840;3.396;2023-02-15T14:33:53;30.45;;;16.02;;
14704;SDS011;7442;50.840;3.396;2023-02-15T14:35:46;30.73;;;13.70;;
14704;SDS011;7442;50.840;3.396;2023-02-15T14:41:04;24.35;;;12.45;;
14704;SDS011;7442;50.840;3.396;2023-02-15T14:43:45;28.50;;;13.48;;
14704;SDS011;7442;50.840;3.396;2023-02-15T14:46:31;21.25;;;11.90;;
14704;SDS011;7442;50.840;3.396;2023-02-15T14:49:04;23.45;;;12.25;;
14704;SDS011;7442;50.840;3.396;2023-02-15T15:02:27;20.70;;;11.22;;
14704;SDS011;7442;50.840;3.396;2023-02-15T15:05:06;15.45;;;10.85;;
14704;SDS011;7442;50.840;3.396;2023-02-15T15:07:41;21.87;;;10.48;;
14704;SDS011;7442;50.840;3.396;2023-02-15T15:12:56;24.12;;;10.65;;
14704;SDS011;7442;50.840;3.396;2023-02-15T15:18:03;20.27;;;11.40;;
14704;SDS011;7442;50.840;3.396;2023-02-15T15:20:39;20.12;;;11.40;;
14704;SDS011;7442;50.840;3.396;2023-02-15T15:25:48;18.65;;;10.68;;
14704;SDS011;7442;50.840;3.396;2023-02-15T15:39:39;20.17;;;10.35;;
14704;SDS011;7442;50.840;3.396;2023-02-15T15:47:58;26.55;;;11.20;;
14704;SDS011;7442;50.840;3.396;2023-02-15T15:50:40;17.55;;;11.03;;
14704;SDS011;7442;50.840;3.396;2023-02-15T15:53:31;18.00;;;9.93;;
14704;SDS011;7442;50.840;3.396;2023-02-15T15:55:55;22.22;;;10.88;;
14704;SDS011;7442;50.840;3.396;2023-02-15T15:58:26;17.60;;;9.95;;
14704;SDS011;7442;50.840;3.396;2023-02-15T16:01:03;18.67;;;10.18;;
14704;SDS011;7442;50.840;3.396;2023-02-15T16:03:34;20.97;;;10.03;;
14704;SDS011;7442;50.840;3.396;2023-02-15T16:06:04;15.53;;;10.18;;
14704;SDS011;7442;50.840;3.396;2023-02-15T16:08:36;22.22;;;9.90;;
14704;SDS011;7442;50.840;3.396;2023-02-15T16:11:14;22.02;;;9.88;;
14704;SDS011;7442;50.840;3.396;2023-02-15T16:13:44;24.15;;;9.80;;
14704;SDS011;7442;50.840;3.396;2023-02-15T16:16:19;18.67;;;9.05;;
14704;SDS011;7442;50.840;3.396;2023-02-15T16:18:50;15.53;;;9.18;;
14704;SDS011;7442;50.840;3.396;2023-02-15T16:21:23;16.37;;;9.40;;
14704;SDS011;7442;50.840;3.396;2023-02-15T16:26:59;18.85;;;8.75;;
14704;SDS011;7442;50.840;3.396;2023-02-15T16:29:29;14.38;;;8.88;;
14704;SDS011;7442;50.840;3.396;2023-02-15T16:32:21;14.80;;;9.10;;
14704;SDS011;7442;50.840;3.396;2023-02-15T16:34:59;18.25;;;9.45;;
14704;SDS011;7442;50.840;3.396;2023-02-15T16:37:33;15.25;;;8.13;;
14704;SDS011;7442;50.840;3.396;2023-02-15T16:40:05;15.00;;;9.03;;
14704;SDS011;7442;50.840;3.396;2023-02-15T16:42:37;21.15;;;9.05;;
14704;SDS011;7442;50.840;3.396;2023-02-15T16:45:08;17.90;;;9.68;;
14704;SDS011;7442;50.840;3.396;2023-02-15T16:47:41;16.07;;;9.33;;
14704;SDS011;7442;50.840;3.396;2023-02-15T16:50:17;15.35;;;9.33;;
14704;SDS011;7442;50.840;3.396;2023-02-15T16:52:50;16.35;;;9.43;;
14704;SDS011;7442;50.840;3.396;2023-02-15T16:55:28;16.52;;;9.93;;
14704;SDS011;7442;50.840;3.396;2023-02-15T16:58:01;16.42;;;9.38;;
14704;SDS011;7442;50.840;3.396;2023-02-15T17:00:36;14.95;;;9.53;;
14704;SDS011;7442;50.840;3.396;2023-02-15T17:05:47;24.57;;;13.03;;
14704;SDS011;7442;50.840;3.396;2023-02-15T17:08:33;32.90;;;13.75;;
14704;SDS011;7442;50.840;3.396;2023-02-15T17:11:09;23.12;;;13.38;;
14704;SDS011;7442;50.840;3.396;2023-02-15T17:16:35;22.70;;;13.30;;
14704;SDS011;7442;50.840;3.396;2023-02-15T17:19:08;28.65;;;14.28;;
14704;SDS011;7442;50.840;3.396;2023-02-15T17:21:56;28.98;;;13.05;;
14704;SDS011;7442;50.840;3.396;2023-02-15T17:24:37;27.75;;;12.98;;
14704;SDS011;7442;50.840;3.396;2023-02-15T17:27:12;21.77;;;12.03;;
14704;SDS011;7442;50.840;3.396;2023-02-15T17:29:57;26.23;;;12.30;;
14704;SDS011;7442;50.840;3.396;2023-02-15T17:32:31;18.57;;;11.28;;
14704;SDS011;7442;50.840;3.396;2023-02-15T17:35:19;20.60;;;10.68;;
14704;SDS011;7442;50.840;3.396;2023-02-15T17:38:18;29.12;;;11.60;;
14704;SDS011;7442;50.840;3.396;2023-02-15T17:40:32;17.57;;;10.38;;
14704;SDS011;7442;50.840;3.396;2023-02-15T17:43:04;19.65;;;10.58;;
14704;SDS011;7442;50.840;3.396;2023-02-15T17:45:46;15.83;;;10.38;;
14704;SDS011;7442;50.840;3.396;2023-02-15T17:48:30;17.20;;;9.98;;
14704;SDS011;7442;50.840;3.396;2023-02-15T17:51:03;18.37;;;9.95;;
14704;SDS011;7442;50.840;3.396;2023-02-15T17:53:35;14.78;;;10.25;;
14704;SDS011;7442;50.840;3.396;2023-02-15T17:56:05;18.37;;;10.43;;
14704;SDS011;7442;50.840;3.396;2023-02-15T17:58:37;15.55;;;9.90;;
14704;SDS011;7442;50.840;3.396;2023-02-15T18:01:13;18.80;;;8.85;;
14704;SDS011;7442;50.840;3.396;2023-02-15T18:04:02;19.15;;;9.25;;
14704;SDS011;7442;50.840;3.396;2023-02-15T18:06:51;17.42;;;9.75;;
14704;SDS011;7442;50.840;3.396;2023-02-15T18:09:39;21.45;;;9.33;;
14704;SDS011;7442;50.840;3.396;2023-02-15T18:12:27;14.73;;;10.00;;
14704;SDS011;7442;50.840;3.396;2023-02-15T18:14:59;15.38;;;9.95;;
14704;SDS011;7442;50.840;3.396;2023-02-15T18:17:34;17.67;;;9.78;;
14704;SDS011;7442;50.840;3.396;2023-02-15T18:20:16;19.25;;;9.53;;
14704;SDS011;7442;50.840;3.396;2023-02-15T18:22:40;16.77;;;9.43;;
14704;SDS011;7442;50.840;3.396;2023-02-15T18:25:14;17.20;;;9.45;;
14704;SDS011;7442;50.840;3.396;2023-02-15T18:30:16;16.20;;;9.03;;
14704;SDS011;7442;50.840;3.396;2023-02-15T18:32:49;12.88;;;9.45;;
14704;SDS011;7442;50.840;3.396;2023-02-15T18:35:22;13.43;;;8.05;;
14704;SDS011;7442;50.840;3.396;2023-02-15T18:37:55;14.80;;;8.40;;
14704;SDS011;7442;50.840;3.396;2023-02-15T18:40:26;13.60;;;8.70;;